Time;durP1;ratioP1;P1;durP2;ratioP2;P2;SDS_P1;SDS_P2;PMS_P1;PMS_P2;Temp;Humidity;BMP_temperature;BMP_pressure;BME280_temperature;BME280_humidity;BME280_pressure;Samples;Min_cycle;Max_cycle;Signal;HPM_P1;HPM_P2
2022/03/05 12:41:28;;;;;;;14.98;9.02;;;6.50;99.90;;;;;;5090587;28;20598;-71
2022/03/05 12:43:55;;;;;;;14.68;9.00;;;6.60;99.90;;;;;;5089631;28;20209;-71
2022/03/05 12:46:21;;;;;;;16.10;8.27;;;6.70;99.90;;;;;;5090812;28;20196;-71
2022/03/05 12:48:47;;;;;;;13.70;8.27;;;6.70;99.90;;;;;;5090754;28;20188;-71
2022/03/05 12:51:13;;;;;;;15.43;9.13;;;7.20;99.90;;;;;;5090739;28;20176;-71
2022/03/05 12:53:40;;;;;;;13.82;8.77;;;7.70;99.90;;;;;;5090710;28;20164;-71
2022/03/05 12:56:06;;;;;;;9.32;7.72;;;6.80;99.90;;;;;;5090439;28;20663;-71
2022/03/05 12:58:37;;;;;;;13.35;8.43;;;6.80;99.90;;;;;;5090547;28;20254;-71
2022/03/05 13:01:04;;;;;;;11.70;8.52;;;6.90;99.90;;;;;;5090518;28;20278;-71
2022/03/05 13:03:31;;;;;;;11.68;7.70;;;7.00;99.90;;;;;;5090402;28;20581;-72
2022/03/05 13:05:57;;;;;;;9.50;7.53;;;7.20;99.90;;;;;;5090498;28;20159;-71
2022/03/05 13:08:49;;;;;;;13.00;8.48;;;7.40;99.90;;;;;;5090438;28;20218;-71
2022/03/05 13:11:18;;;;;;;14.27;7.97;;;7.50;99.90;;;;;;5087570;28;20559;-71
2022/03/05 13:13:52;;;;;;;13.82;8.48;;;7.50;99.90;;;;;;5090330;28;20168;-71
2022/03/05 13:16:34;;;;;;;12.00;8.00;;;7.60;99.90;;;;;;5090576;28;20524;-72
2022/03/05 13:19:11;;;;;;;11.52;8.18;;;7.70;99.90;;;;;;5088695;28;20175;-71
2022/03/05 13:21:38;;;;;;;16.35;8.25;;;7.80;99.90;;;;;;5090166;28;20193;-71
2022/03/05 13:24:05;;;;;;;8.23;6.85;;;7.90;99.90;;;;;;5090166;28;20159;-72
2022/03/05 13:26:35;;;;;;;10.48;7.75;;;8.10;99.90;;;;;;5090054;28;20209;-72
2022/03/05 13:29:03;;;;;;;10.50;7.57;;;8.30;99.90;;;;;;5089788;28;20167;-72
2022/03/05 13:31:29;;;;;;;11.63;7.40;;;8.40;99.90;;;;;;5089928;28;20171;-71
2022/03/05 13:33:54;;;;;;;9.38;7.10;;;8.50;99.90;;;;;;5089833;28;20160;-71
2022/03/05 13:36:24;;;;;;;12.32;8.15;;;8.70;99.90;;;;;;5089915;28;20221;-72
2022/03/05 13:38:52;;;;;;;14.68;8.45;;;8.80;99.90;;;;;;5089857;28;20249;-72
2022/03/05 13:41:29;;;;;;;12.98;7.97;;;8.80;99.90;;;;;;5089592;28;20270;-72
2022/03/05 13:43:57;;;;;;;12.77;7.97;;;8.90;99.90;;;;;;5088353;28;20515;-72
2022/03/05 13:46:24;;;;;;;12.38;8.20;;;8.80;99.90;;;;;;5089685;28;20163;-72
2022/03/05 13:48:54;;;;;;;12.95;8.38;;;9.00;99.90;;;;;;5089573;28;20188;-72
2022/03/05 13:51:26;;;;;;;12.23;7.57;;;9.00;99.90;;;;;;5084587;28;20173;-72
2022/03/05 13:54:03;;;;;;;11.07;7.85;;;9.10;99.90;;;;;;5075963;28;20168;-72
2022/03/05 13:56:44;;;;;;;10.38;7.55;;;9.30;99.90;;;;;;5075956;28;20195;-72
2022/03/05 13:59:11;;;;;;;10.00;7.70;;;9.40;99.90;;;;;;5075931;28;20179;-72
2022/03/05 14:01:52;;;;;;;11.35;9.00;;;9.40;99.90;;;;;;5074740;28;20255;-72
2022/03/05 14:04:19;;;;;;;11.80;7.63;;;9.60;99.90;;;;;;5074677;28;20172;-72
2022/03/05 14:06:45;;;;;;;10.80;7.28;;;9.50;99.90;;;;;;5075805;28;20169;-72
2022/03/05 14:09:27;;;;;;;11.45;7.90;;;9.70;99.90;;;;;;5075805;28;20191;-72
2022/03/05 14:12:04;;;;;;;12.88;7.95;;;9.70;99.90;;;;;;5075635;28;20656;-72
2022/03/05 14:14:39;;;;;;;12.38;7.78;;;9.80;99.90;;;;;;5074460;28;20184;-72
2022/03/05 14:17:05;;;;;;;11.07;7.82;;;9.90;99.90;;;;;;5074228;28;20664;-72
2022/03/05 14:19:33;;;;;;;10.55;7.88;;;10.00;99.90;;;;;;5075444;28;20220;-72
2022/03/05 14:22:10;;;;;;;12.73;8.00;;;9.90;99.90;;;;;;5075545;28;20167;-72
2022/03/05 14:24:43;;;;;;;12.02;7.93;;;10.00;99.90;;;;;;5074206;28;20246;-72
2022/03/05 14:27:11;;;;;;;12.93;8.20;;;10.10;99.90;;;;;;5075514;28;20165;-72
2022/03/05 14:29:37;;;;;;;13.55;7.95;;;10.10;99.90;;;;;;5074097;28;20176;-72
2022/03/05 14:32:03;;;;;;;11.98;8.55;;;10.10;99.90;;;;;;5075220;28;20685;-72
2022/03/05 14:34:29;;;;;;;12.13;7.38;;;10.10;99.90;;;;;;5075320;28;20195;-72
2022/03/05 14:36:54;;;;;;;10.55;8.05;;;10.10;99.90;;;;;;5075275;28;20580;-72
2022/03/05 14:39:20;;;;;;;11.43;7.63;;;10.00;99.90;;;;;;5074990;28;20554;-72
2022/03/05 14:41:45;;;;;;;11.45;7.72;;;10.20;99.90;;;;;;5075196;28;20168;-72
2022/03/05 14:44:11;;;;;;;9.35;7.45;;;10.30;99.90;;;;;;5075121;28;20176;-72
2022/03/05 14:46:39;;;;;;;8.80;7.00;;;10.40;99.90;;;;;;5075012;28;20168;-72
2022/03/05 14:49:07;;;;;;;11.98;7.85;;;10.40;99.90;;;;;;5074959;28;20185;-72
2022/03/05 14:51:34;;;;;;;14.82;7.35;;;10.40;99.90;;;;;;5075022;28;20763;-72
2022/03/05 14:54:00;;;;;;;11.48;8.07;;;10.30;99.90;;;;;;5074948;28;20222;-72
2022/03/05 14:56:26;;;;;;;7.50;6.72;;;10.20;99.90;;;;;;5074724;28;20164;-72
2022/03/05 14:58:51;;;;;;;9.52;7.03;;;10.10;99.90;;;;;;5074783;28;20175;-72
2022/03/05 15:01:19;;;;;;;8.05;6.65;;;10.10;99.90;;;;;;5074627;28;20273;-72
2022/03/05 15:03:45;;;;;;;13.07;7.88;;;10.10;99.90;;;;;;5073724;28;20656;-72
2022/03/05 15:06:13;;;;;;;11.90;7.53;;;10.20;99.90;;;;;;5074626;28;20630;-72
2022/03/05 15:08:38;;;;;;;12.05;8.65;;;10.10;99.90;;;;;;5074615;28;20165;-72
2022/03/05 15:11:04;;;;;;;11.23;7.80;;;10.20;99.90;;;;;;5074576;28;20501;-72
2022/03/05 15:13:30;;;;;;;8.77;7.88;;;10.30;99.90;;;;;;5073259;28;20172;-72
2022/03/05 15:15:55;;;;;;;9.20;7.90;;;10.50;99.90;;;;;;5074437;28;20323;-72
2022/03/05 15:18:21;;;;;;;8.27;7.40;;;10.50;99.90;;;;;;5074432;28;20682;-72
2022/03/05 15:20:47;;;;;;;9.32;7.55;;;10.60;99.90;;;;;;5074266;28;20196;-72
2022/03/05 15:23:12;;;;;;;11.43;8.07;;;10.60;99.90;;;;;;5072964;28;20221;-72
2022/03/05 15:25:38;;;;;;;10.18;7.70;;;10.40;99.90;;;;;;5074119;28;20530;-72
2022/03/05 15:28:03;;;;;;;10.95;8.10;;;10.40;99.90;;;;;;5074074;28;20168;-72
2022/03/05 15:30:29;;;;;;;11.13;8.15;;;10.40;99.90;;;;;;5073925;28;20168;-72
2022/03/05 15:32:55;;;;;;;10.82;8.30;;;10.40;99.90;;;;;;5073974;28;20516;-72
2022/03/05 15:35:20;;;;;;;10.30;7.00;;;10.50;99.90;;;;;;5073943;28;20172;-72
2022/03/05 15:37:52;;;;;;;10.95;7.53;;;10.50;99.90;;;;;;5072599;28;20180;-72
2022/03/05 15:40:32;;;;;;;12.88;8.70;;;10.50;99.90;;;;;;5073520;28;20231;-72
2022/03/05 15:42:58;;;;;;;10.05;7.05;;;10.40;99.90;;;;;;5073841;28;20168;-72
2022/03/05 15:45:26;;;;;;;10.95;8.63;;;10.30;99.90;;;;;;5073766;28;20176;-72
2022/03/05 15:47:52;;;;;;;8.75;7.85;;;10.10;99.90;;;;;;5073604;28;20160;-72
2022/03/05 15:50:19;;;;;;;9.63;7.85;;;10.30;99.90;;;;;;5073691;28;20179;-72
2022/03/05 15:52:45;;;;;;;11.68;8.35;;;10.90;99.90;;;;;;5073703;28;20193;-72
2022/03/05 15:55:12;;;;;;;11.88;8.05;;;10.20;99.90;;;;;;5073556;28;20173;-71
2022/03/05 15:57:38;;;;;;;9.88;7.70;;;10.20;99.90;;;;;;5073532;28;20217;-71
2022/03/05 16:00:08;;;;;;;11.93;8.50;;;10.20;99.90;;;;;;5073353;28;20688;-71
2022/03/05 16:02:34;;;;;;;8.52;7.22;;;10.10;99.90;;;;;;5073581;28;20169;-71
2022/03/05 16:05:00;;;;;;;10.02;7.68;;;10.00;99.90;;;;;;5072249;28;20195;-71
2022/03/05 16:07:26;;;;;;;11.60;7.13;;;9.90;99.90;;;;;;5073510;28;20625;-71
2022/03/05 16:09:51;;;;;;;7.88;7.07;;;9.80;99.90;;;;;;5073324;28;20180;-71
2022/03/05 16:12:17;;;;;;;9.95;7.90;;;9.70;99.90;;;;;;5073376;28;20180;-71
2022/03/05 16:14:42;;;;;;;11.43;7.90;;;9.50;99.90;;;;;;5073093;28;20204;-71
2022/03/05 16:17:08;;;;;;;10.60;7.55;;;9.70;99.90;;;;;;5073313;28;20226;-71
2022/03/05 16:19:34;;;;;;;13.13;7.45;;;9.60;99.90;;;;;;5073260;28;20192;-71
2022/03/05 16:21:59;;;;;;;10.32;7.60;;;9.60;99.90;;;;;;5073269;28;20172;-71
2022/03/05 16:24:25;;;;;;;14.32;8.13;;;9.50;99.90;;;;;;5071922;28;20172;-71
2022/03/05 16:26:50;;;;;;;9.38;7.78;;;9.50;99.90;;;;;;5073155;28;20168;-71
2022/03/05 16:29:16;;;;;;;12.05;6.95;;;9.40;99.90;;;;;;5073234;28;20309;-71
2022/03/05 16:31:42;;;;;;;8.55;6.82;;;9.30;99.90;;;;;;5071933;28;20204;-71
2022/03/05 16:34:07;;;;;;;9.32;7.45;;;9.20;99.90;;;;;;5073202;28;20672;-71
2022/03/05 16:36:33;;;;;;;7.72;6.60;;;9.00;99.90;;;;;;5073097;28;20168;-71
2022/03/05 16:39:01;;;;;;;8.65;7.75;;;8.90;99.90;;;;;;5073219;28;20168;-71
2022/03/05 16:41:27;;;;;;;12.05;8.23;;;8.90;99.90;;;;;;5071820;28;20562;-71
2022/03/05 16:43:53;;;;;;;9.82;6.95;;;8.80;99.90;;;;;;5073316;28;20199;-69
2022/03/05 16:46:20;;;;;;;9.57;7.38;;;8.70;99.90;;;;;;5073159;28;20168;-72
2022/03/05 16:48:46;;;;;;;11.68;7.05;;;8.60;99.90;;;;;;5073190;28;20188;-71
2022/03/05 16:51:12;;;;;;;9.35;6.97;;;8.50;99.90;;;;;;5073105;28;20633;-71
2022/03/05 16:53:38;;;;;;;9.75;8.07;;;8.40;99.90;;;;;;5073069;28;20177;-71
2022/03/05 16:56:04;;;;;;;9.10;7.80;;;8.20;99.90;;;;;;5073099;28;20176;-71
2022/03/05 16:58:29;;;;;;;8.35;6.97;;;8.00;99.90;;;;;;5073089;28;20199;-71
2022/03/05 17:00:55;;;;;;;9.27;7.03;;;7.90;99.90;;;;;;5073004;28;20196;-71
2022/03/05 17:03:21;;;;;;;9.48;7.60;;;7.70;99.90;;;;;;5071819;28;20168;-71
2022/03/05 17:05:47;;;;;;;10.05;7.22;;;7.60;99.90;;;;;;5073033;28;20517;-71
2022/03/05 17:08:12;;;;;;;9.60;7.35;;;7.40;99.90;;;;;;5072977;28;20171;-71
2022/03/05 17:10:38;;;;;;;7.88;7.05;;;7.10;99.90;;;;;;5073100;28;20191;-70
2022/03/05 17:13:04;;;;;;;13.73;8.50;;;7.00;99.90;;;;;;5073096;28;20226;-71
2022/03/05 17:15:29;;;;;;;9.60;7.30;;;6.80;99.90;;;;;;5072906;28;20173;-71
2022/03/05 17:17:57;;;;;;;7.93;6.43;;;6.60;99.90;;;;;;5072898;28;20172;-71
2022/03/05 17:20:24;;;;;;;10.05;8.43;;;6.50;99.90;;;;;;5071486;28;20215;-71
2022/03/05 17:22:50;;;;;;;15.07;10.70;;;7.40;99.90;;;;;;5072844;28;20526;-71
